<?xml version="1.0" encoding="UTF-8"?>
<gpx creator="Wikiloc - http://www.wikiloc.com" version="1.1" xmlns="http://www.topografix.com/GPX/1/1" xmlns:xsi="http://www.w3.org/2001/XMLSchema-instance" xsi:schemaLocation="http://www.topografix.com/GPX/1/1 http://www.topografix.com/GPX/1/1/gpx.xsd">
  <trk>
    <name>Ruta Día 2</name>
    <cmt>Naranjera-San Juan-Puerto de Malagón-Arboreto Luis Ceballos</cmt>
    <desc>Naranjera-San Juan-Puerto de Malagón-Arboreto Luis Ceballos</desc>
    <trkseg>
      <trkpt lat="40.636395" lon="-4.171414">
        <ele>1599.0</ele>
        <time>2013-04-17T16:30:19Z</time>
      </trkpt>
      <trkpt lat="40.635092" lon="-4.171350">
        <ele>1609.0</ele>
        <time>2013-04-17T16:30:39Z</time>
      </trkpt>
      <trkpt lat="40.634897" lon="-4.171243">
        <ele>1610.0</ele>
        <time>2013-04-17T16:30:59Z</time>
      </trkpt>
      <trkpt lat="40.634799" lon="-4.171393">
        <ele>1610.0</ele>
        <time>2013-04-17T16:31:19Z</time>
      </trkpt>
      <trkpt lat="40.634294" lon="-4.171371">
        <ele>1612.0</ele>
        <time>2013-04-17T16:31:39Z</time>
      </trkpt>
      <trkpt lat="40.634017" lon="-4.171543">
        <ele>1609.0</ele>
        <time>2013-04-17T16:31:59Z</time>
      </trkpt>
      <trkpt lat="40.633626" lon="-4.171522">
        <ele>1611.0</ele>
        <time>2013-04-17T16:32:19Z</time>
      </trkpt>
      <trkpt lat="40.632926" lon="-4.172058">
        <ele>1608.0</ele>
        <time>2013-04-17T16:32:39Z</time>
      </trkpt>
      <trkpt lat="40.632568" lon="-4.172080">
        <ele>1608.0</ele>
        <time>2013-04-17T16:32:59Z</time>
      </trkpt>
      <trkpt lat="40.632438" lon="-4.172273">
        <ele>1609.0</ele>
        <time>2013-04-17T16:33:19Z</time>
      </trkpt>
      <trkpt lat="40.632128" lon="-4.172466">
        <ele>1611.0</ele>
        <time>2013-04-17T16:33:39Z</time>
      </trkpt>
      <trkpt lat="40.631575" lon="-4.172981">
        <ele>1618.0</ele>
        <time>2013-04-17T16:33:59Z</time>
      </trkpt>
      <trkpt lat="40.630826" lon="-4.173174">
        <ele>1631.0</ele>
        <time>2013-04-17T16:34:19Z</time>
      </trkpt>
      <trkpt lat="40.630076" lon="-4.173174">
        <ele>1651.0</ele>
        <time>2013-04-17T16:34:39Z</time>
      </trkpt>
      <trkpt lat="40.629523" lon="-4.173088">
        <ele>1664.0</ele>
        <time>2013-04-17T16:34:59Z</time>
      </trkpt>
      <trkpt lat="40.629148" lon="-4.172487">
        <ele>1672.0</ele>
        <time>2013-04-17T16:35:19Z</time>
      </trkpt>
      <trkpt lat="40.628888" lon="-4.172122">
        <ele>1682.0</ele>
        <time>2013-04-17T16:35:39Z</time>
      </trkpt>
      <trkpt lat="40.628480" lon="-4.171414">
        <ele>1687.0</ele>
        <time>2013-04-17T16:35:59Z</time>
      </trkpt>
      <trkpt lat="40.627357" lon="-4.169719">
        <ele>1703.0</ele>
        <time>2013-04-17T16:36:19Z</time>
      </trkpt>
      <trkpt lat="40.626331" lon="-4.169075">
        <ele>1710.0</ele>
        <time>2013-04-17T16:36:39Z</time>
      </trkpt>
      <trkpt lat="40.626021" lon="-4.166887">
        <ele>1714.0</ele>
        <time>2013-04-17T16:36:59Z</time>
      </trkpt>
      <trkpt lat="40.626152" lon="-4.165235">
        <ele>1709.0</ele>
        <time>2013-04-17T16:37:19Z</time>
      </trkpt>
      <trkpt lat="40.626200" lon="-4.164526">
        <ele>1711.0</ele>
        <time>2013-04-17T16:37:39Z</time>
      </trkpt>
      <trkpt lat="40.625875" lon="-4.163046">
        <ele>1709.0</ele>
        <time>2013-04-17T16:37:59Z</time>
      </trkpt>
      <trkpt lat="40.624490" lon="-4.161952">
        <ele>1697.0</ele>
        <time>2013-04-17T16:38:19Z</time>
      </trkpt>
      <trkpt lat="40.623611" lon="-4.161308">
        <ele>1689.0</ele>
        <time>2013-04-17T16:38:39Z</time>
      </trkpt>
      <trkpt lat="40.622218" lon="-4.160492">
        <ele>1697.0</ele>
        <time>2013-04-17T16:38:59Z</time>
      </trkpt>
      <trkpt lat="40.620875" lon="-4.159677">
        <ele>1718.0</ele>
        <time>2013-04-17T16:39:19Z</time>
      </trkpt>
      <trkpt lat="40.620337" lon="-4.159387">
        <ele>1724.0</ele>
        <time>2013-04-17T16:39:39Z</time>
      </trkpt>
      <trkpt lat="40.618994" lon="-4.160342">
        <ele>1733.0</ele>
        <time>2013-04-17T16:39:59Z</time>
      </trkpt>
      <trkpt lat="40.617894" lon="-4.161115">
        <ele>1739.0</ele>
        <time>2013-04-17T16:40:19Z</time>
      </trkpt>
      <trkpt lat="40.616469" lon="-4.162070">
        <ele>1731.0</ele>
        <time>2013-04-17T16:40:39Z</time>
      </trkpt>
      <trkpt lat="40.614970" lon="-4.162992">
        <ele>1724.0</ele>
        <time>2013-04-17T16:40:59Z</time>
      </trkpt>
      <trkpt lat="40.614726" lon="-4.163142">
        <ele>1723.0</ele>
        <time>2013-04-17T16:41:19Z</time>
      </trkpt>
      <trkpt lat="40.614588" lon="-4.163389">
        <ele>1723.0</ele>
        <time>2013-04-17T16:41:39Z</time>
      </trkpt>
      <trkpt lat="40.614099" lon="-4.163657">
        <ele>1716.0</ele>
        <time>2013-04-17T16:41:59Z</time>
      </trkpt>
      <trkpt lat="40.613570" lon="-4.164290">
        <ele>1705.0</ele>
        <time>2013-04-17T16:42:19Z</time>
      </trkpt>
      <trkpt lat="40.613480" lon="-4.165106">
        <ele>1697.0</ele>
        <time>2013-04-17T16:42:39Z</time>
      </trkpt>
      <trkpt lat="40.613195" lon="-4.165428">
        <ele>1689.0</ele>
        <time>2013-04-17T16:42:59Z</time>
      </trkpt>
      <trkpt lat="40.612804" lon="-4.165170">
        <ele>1682.0</ele>
        <time>2013-04-17T16:43:19Z</time>
      </trkpt>
      <trkpt lat="40.611493" lon="-4.166629">
        <ele>1656.0</ele>
        <time>2013-04-17T16:43:39Z</time>
      </trkpt>
      <trkpt lat="40.610401" lon="-4.167992">
        <ele>1631.0</ele>
        <time>2013-04-17T16:43:59Z</time>
      </trkpt>
      <trkpt lat="40.609685" lon="-4.168904">
        <ele>1614.0</ele>
        <time>2013-04-17T16:44:19Z</time>
      </trkpt>
      <trkpt lat="40.609497" lon="-4.169022">
        <ele>1611.0</ele>
        <time>2013-04-17T16:44:39Z</time>
      </trkpt>
      <trkpt lat="40.609465" lon="-4.169290">
        <ele>1609.0</ele>
        <time>2013-04-17T16:44:59Z</time>
      </trkpt>
      <trkpt lat="40.608740" lon="-4.169773">
        <ele>1592.0</ele>
        <time>2013-04-17T16:45:19Z</time>
      </trkpt>
      <trkpt lat="40.608544" lon="-4.169966">
        <ele>1589.0</ele>
        <time>2013-04-17T16:45:39Z</time>
      </trkpt>
      <trkpt lat="40.608422" lon="-4.170266">
        <ele>1581.0</ele>
        <time>2013-04-17T16:45:59Z</time>
      </trkpt>
      <trkpt lat="40.608365" lon="-4.170728">
        <ele>1577.0</ele>
        <time>2013-04-17T16:46:19Z</time>
      </trkpt>
      <trkpt lat="40.607828" lon="-4.171135">
        <ele>1569.0</ele>
        <time>2013-04-17T16:46:39Z</time>
      </trkpt>
      <trkpt lat="40.607583" lon="-4.171436">
        <ele>1565.0</ele>
        <time>2013-04-17T16:46:59Z</time>
      </trkpt>
      <trkpt lat="40.607388" lon="-4.171296">
        <ele>1565.0</ele>
        <time>2013-04-17T16:47:19Z</time>
      </trkpt>
      <trkpt lat="40.606891" lon="-4.171307">
        <ele>1558.0</ele>
        <time>2013-04-17T16:47:39Z</time>
      </trkpt>
      <trkpt lat="40.606304" lon="-4.172230">
        <ele>1545.0</ele>
        <time>2013-04-17T16:47:59Z</time>
      </trkpt>
      <trkpt lat="40.605954" lon="-4.172240">
        <ele>1541.0</ele>
        <time>2013-04-17T16:48:19Z</time>
      </trkpt>
      <trkpt lat="40.605685" lon="-4.173088">
        <ele>1530.0</ele>
        <time>2013-04-17T16:48:39Z</time>
      </trkpt>
      <trkpt lat="40.605123" lon="-4.173700">
        <ele>1524.0</ele>
        <time>2013-04-17T16:48:59Z</time>
      </trkpt>
      <trkpt lat="40.604806" lon="-4.173882">
        <ele>1522.0</ele>
        <time>2013-04-17T16:49:19Z</time>
      </trkpt>
      <trkpt lat="40.604390" lon="-4.174021">
        <ele>1521.0</ele>
        <time>2013-04-17T16:49:39Z</time>
      </trkpt>
      <trkpt lat="40.604276" lon="-4.173979">
        <ele>1521.0</ele>
        <time>2013-04-17T16:49:59Z</time>
      </trkpt>
      <trkpt lat="40.604211" lon="-4.173625">
        <ele>1519.0</ele>
        <time>2013-04-17T16:50:19Z</time>
      </trkpt>
      <trkpt lat="40.603877" lon="-4.173228">
        <ele>1514.0</ele>
        <time>2013-04-17T16:50:39Z</time>
      </trkpt>
      <trkpt lat="40.603910" lon="-4.172595">
        <ele>1503.0</ele>
        <time>2013-04-17T16:50:59Z</time>
      </trkpt>
      <trkpt lat="40.603983" lon="-4.171876">
        <ele>1501.0</ele>
        <time>2013-04-17T16:51:19Z</time>
      </trkpt>
      <trkpt lat="40.604268" lon="-4.171017">
        <ele>1502.0</ele>
        <time>2013-04-17T16:51:39Z</time>
      </trkpt>
      <trkpt lat="40.604227" lon="-4.170953">
        <ele>1499.0</ele>
        <time>2013-04-17T16:51:59Z</time>
      </trkpt>
      <trkpt lat="40.603812" lon="-4.171135">
        <ele>1494.0</ele>
        <time>2013-04-17T16:52:19Z</time>
      </trkpt>
      <trkpt lat="40.603380" lon="-4.171189">
        <ele>1481.0</ele>
        <time>2013-04-17T16:52:39Z</time>
      </trkpt>
      <trkpt lat="40.602786" lon="-4.171629">
        <ele>1478.0</ele>
        <time>2013-04-17T16:52:59Z</time>
      </trkpt>
      <trkpt lat="40.602256" lon="-4.171908">
        <ele>1474.0</ele>
        <time>2013-04-17T16:53:19Z</time>
      </trkpt>
      <trkpt lat="40.602109" lon="-4.171886">
        <ele>1474.0</ele>
        <time>2013-04-17T16:53:39Z</time>
      </trkpt>
      <trkpt lat="40.601718" lon="-4.171060">
        <ele>1455.0</ele>
        <time>2013-04-17T16:53:59Z</time>
      </trkpt>
      <trkpt lat="40.601523" lon="-4.171028">
        <ele>1448.0</ele>
        <time>2013-04-17T16:54:19Z</time>
      </trkpt>
      <trkpt lat="40.600912" lon="-4.171479">
        <ele>1436.0</ele>
        <time>2013-04-17T16:54:39Z</time>
      </trkpt>
      <trkpt lat="40.600138" lon="-4.171575">
        <ele>1439.0</ele>
        <time>2013-04-17T16:54:59Z</time>
      </trkpt>
      <trkpt lat="40.599934" lon="-4.171339">
        <ele>1429.0</ele>
        <time>2013-04-17T16:55:19Z</time>
      </trkpt>
      <trkpt lat="40.600203" lon="-4.170856">
        <ele>1418.0</ele>
        <time>2013-04-17T16:55:39Z</time>
      </trkpt>
      <trkpt lat="40.600154" lon="-4.170556">
        <ele>1415.0</ele>
        <time>2013-04-17T16:55:59Z</time>
      </trkpt>
      <trkpt lat="40.599372" lon="-4.170449">
        <ele>1405.0</ele>
        <time>2013-04-17T16:56:19Z</time>
      </trkpt>
      <trkpt lat="40.599104" lon="-4.170116">
        <ele>1397.0</ele>
        <time>2013-04-17T16:56:39Z</time>
      </trkpt>
      <trkpt lat="40.598753" lon="-4.169848">
        <ele>1395.0</ele>
        <time>2013-04-17T16:56:59Z</time>
      </trkpt>
      <trkpt lat="40.598395" lon="-4.169236">
        <ele>1387.0</ele>
        <time>2013-04-17T16:57:19Z</time>
      </trkpt>
      <trkpt lat="40.598077" lon="-4.168679">
        <ele>1375.0</ele>
        <time>2013-04-17T16:57:39Z</time>
      </trkpt>
      <trkpt lat="40.597670" lon="-4.168561">
        <ele>1378.0</ele>
        <time>2013-04-17T16:57:59Z</time>
      </trkpt>
      <trkpt lat="40.597140" lon="-4.168797">
        <ele>1388.0</ele>
        <time>2013-04-17T16:58:19Z</time>
      </trkpt>
      <trkpt lat="40.596399" lon="-4.169698">
        <ele>1390.0</ele>
        <time>2013-04-17T16:58:39Z</time>
      </trkpt>
      <trkpt lat="40.595951" lon="-4.170760">
        <ele>1395.0</ele>
        <time>2013-04-17T16:58:59Z</time>
      </trkpt>
      <trkpt lat="40.595487" lon="-4.171543">
        <ele>1403.0</ele>
        <time>2013-04-17T16:59:19Z</time>
      </trkpt>
      <trkpt lat="40.595038" lon="-4.172101">
        <ele>1393.0</ele>
        <time>2013-04-17T16:59:39Z</time>
      </trkpt>
      <trkpt lat="40.594542" lon="-4.172970">
        <ele>1388.0</ele>
        <time>2013-04-17T16:59:59Z</time>
      </trkpt>
      <trkpt lat="40.594102" lon="-4.173828">
        <ele>1386.0</ele>
        <time>2013-04-17T17:00:19Z</time>
      </trkpt>
      <trkpt lat="40.593751" lon="-4.174483">
        <ele>1380.0</ele>
        <time>2013-04-17T17:00:39Z</time>
      </trkpt>
      <trkpt lat="40.593548" lon="-4.174751">
        <ele>1373.0</ele>
        <time>2013-04-17T17:00:59Z</time>
      </trkpt>
      <trkpt lat="40.593491" lon="-4.174730">
        <ele>1373.0</ele>
        <time>2013-04-17T17:01:19Z</time>
      </trkpt>
      <trkpt lat="40.593735" lon="-4.173313">
        <ele>1354.0</ele>
        <time>2013-04-17T17:01:39Z</time>
      </trkpt>
      <trkpt lat="40.593768" lon="-4.172605">
        <ele>1354.0</ele>
        <time>2013-04-17T17:01:59Z</time>
      </trkpt>
      <trkpt lat="40.593686" lon="-4.172133">
        <ele>1335.0</ele>
        <time>2013-04-17T17:02:19Z</time>
      </trkpt>
      <trkpt lat="40.593816" lon="-4.171447">
        <ele>1332.0</ele>
        <time>2013-04-17T17:02:39Z</time>
      </trkpt>
      <trkpt lat="40.594045" lon="-4.170513">
        <ele>1328.0</ele>
        <time>2013-04-17T17:02:59Z</time>
      </trkpt>
      <trkpt lat="40.594582" lon="-4.169451">
        <ele>1325.0</ele>
        <time>2013-04-17T17:03:19Z</time>
      </trkpt>
      <trkpt lat="40.594721" lon="-4.168915">
        <ele>1324.0</ele>
        <time>2013-04-17T17:03:39Z</time>
      </trkpt>
      <trkpt lat="40.595275" lon="-4.167981">
        <ele>1321.0</ele>
        <time>2013-04-17T17:03:59Z</time>
      </trkpt>
      <trkpt lat="40.595698" lon="-4.167016">
        <ele>1311.0</ele>
        <time>2013-04-17T17:04:19Z</time>
      </trkpt>
      <trkpt lat="40.595959" lon="-4.166533">
        <ele>1307.0</ele>
        <time>2013-04-17T17:04:39Z</time>
      </trkpt>
      <trkpt lat="40.596081" lon="-4.166275">
        <ele>1307.0</ele>
        <time>2013-04-17T17:04:59Z</time>
      </trkpt>
    </trkseg>
  </trk></gpx>